Time;durP1;ratioP1;P1;durP2;ratioP2;P2;SDS_P1;SDS_P2;PMS_P1;PMS_P2;Temp;Humidity;BMP_temperature;BMP_pressure;BME280_temperature;BME280_humidity;BME280_pressure;Samples;Min_cycle;Max_cycle;Signal;HPM_P1;HPM_P2
2023/05/28 00:00:28;;;;;;;8.20;4.50;;;9.20;99.90;;;;;;5120592;27;20222;-80
2023/05/28 00:02:56;;;;;;;9.20;5.53;;;9.60;99.90;;;;;;5142867;27;20254;-77
2023/05/28 00:05:24;;;;;;;13.00;5.40;;;9.70;99.90;;;;;;5127017;27;20204;-80
2023/05/28 00:07:50;;;;;;;9.93;5.00;;;9.60;99.90;;;;;;5126743;27;20207;-78
2023/05/28 00:10:17;;;;;;;9.17;5.50;;;9.30;99.90;;;;;;5131842;27;20200;-80
2023/05/28 00:12:44;;;;;;;9.50;5.53;;;9.40;99.90;;;;;;5122054;28;20223;-80
2023/05/28 00:15:13;;;;;;;9.20;5.27;;;9.60;99.90;;;;;;5139814;27;20199;-79
2023/05/28 00:17:40;;;;;;;11.67;5.53;;;9.60;99.90;;;;;;5129138;27;20743;-79
2023/05/28 00:20:09;;;;;;;9.77;5.70;;;9.60;99.90;;;;;;5125118;27;20224;-78
2023/05/28 00:22:35;;;;;;;12.73;6.10;;;9.80;99.90;;;;;;5135199;27;20229;-78
2023/05/28 00:25:02;;;;;;;12.50;5.50;;;9.90;99.90;;;;;;5121000;27;20211;-80
2023/05/28 00:27:29;;;;;;;8.97;5.07;;;9.80;99.90;;;;;;5122019;27;20212;-76
2023/05/28 00:29:56;;;;;;;11.90;6.10;;;9.60;99.90;;;;;;5126429;27;20280;-79
2023/05/28 00:32:23;;;;;;;9.47;4.97;;;9.60;99.90;;;;;;5133323;27;20279;-76
2023/05/28 00:34:49;;;;;;;10.03;5.23;;;9.50;99.90;;;;;;5138153;27;20215;-77
2023/05/28 00:37:18;;;;;;;11.77;6.20;;;9.10;99.90;;;;;;5130312;27;20639;-78
2023/05/28 00:39:44;;;;;;;10.27;5.83;;;9.00;99.90;;;;;;5130356;27;20216;-78
2023/05/28 00:42:12;;;;;;;10.27;5.63;;;8.90;99.90;;;;;;5131462;27;20654;-79
2023/05/28 00:44:39;;;;;;;9.83;5.57;;;9.00;99.90;;;;;;5128232;27;20196;-79
2023/05/28 00:47:06;;;;;;;10.13;5.87;;;9.20;99.90;;;;;;5137691;27;20235;-80
2023/05/28 00:49:33;;;;;;;11.53;6.47;;;9.30;99.90;;;;;;5132700;27;20276;-80
2023/05/28 00:52:01;;;;;;;12.80;6.57;;;9.50;99.90;;;;;;5122659;27;20224;-79
2023/05/28 00:54:31;;;;;;;13.77;5.83;;;9.50;99.90;;;;;;5120375;28;20196;-80
2023/05/28 00:56:58;;;;;;;14.40;6.53;;;9.50;99.90;;;;;;5137337;27;20204;-80
2023/05/28 00:59:26;;;;;;;13.03;6.23;;;9.60;99.90;;;;;;5136999;27;20212;-80
2023/05/28 01:01:54;;;;;;;11.70;6.33;;;9.50;99.90;;;;;;5120033;27;20225;-80
2023/05/28 01:04:22;;;;;;;9.80;6.50;;;9.60;99.90;;;;;;5112540;27;20207;-77
2023/05/28 01:06:49;;;;;;;12.17;6.77;;;9.70;99.90;;;;;;5120667;27;20869;-80
2023/05/28 01:09:16;;;;;;;13.27;7.60;;;9.50;99.90;;;;;;5124151;27;20204;-78
2023/05/28 01:11:49;;;;;;;14.00;6.83;;;9.50;99.90;;;;;;5128311;27;20200;-79
2023/05/28 01:14:16;;;;;;;10.90;5.53;;;9.60;99.90;;;;;;5118900;27;20205;-78
2023/05/28 01:16:44;;;;;;;12.57;5.87;;;9.50;99.90;;;;;;5127907;27;20226;-76
2023/05/28 01:19:16;;;;;;;9.77;5.90;;;9.50;99.90;;;;;;5120606;27;20722;-77
2023/05/28 01:21:46;;;;;;;11.33;6.63;;;9.50;99.90;;;;;;5132781;27;20220;-78
2023/05/28 01:24:15;;;;;;;7.77;5.07;;;9.40;99.90;;;;;;5122971;27;20280;-79
2023/05/28 01:26:43;;;;;;;13.23;5.90;;;9.30;99.90;;;;;;5135219;27;20208;-78
2023/05/28 01:29:19;;;;;;;10.73;5.87;;;9.20;99.90;;;;;;5136753;27;20197;-76
2023/05/28 01:31:46;;;;;;;9.83;5.80;;;9.10;99.90;;;;;;5119945;27;20204;-76
2023/05/28 01:34:14;;;;;;;9.77;5.53;;;9.20;99.90;;;;;;5137401;27;20196;-80
2023/05/28 01:36:45;;;;;;;10.60;5.67;;;9.30;99.90;;;;;;5122541;27;20724;-77
2023/05/28 01:39:16;;;;;;;11.07;6.03;;;9.30;99.90;;;;;;5128135;27;20307;-77
2023/05/28 01:41:45;;;;;;;9.23;5.40;;;9.20;99.90;;;;;;5134108;27;20279;-80
2023/05/28 01:44:13;;;;;;;9.63;5.30;;;9.10;99.90;;;;;;5123100;27;20205;-78
2023/05/28 01:46:40;;;;;;;9.87;4.67;;;8.50;99.90;;;;;;5139612;27;20196;-77
2023/05/28 01:49:07;;;;;;;11.57;5.50;;;8.20;99.90;;;;;;5129990;27;20200;-78
2023/05/28 01:51:34;;;;;;;10.37;5.63;;;8.30;99.90;;;;;;5125273;28;20200;-80
2023/05/28 01:54:01;;;;;;;9.50;5.80;;;8.20;99.90;;;;;;5126819;28;20239;-78
2023/05/28 01:56:30;;;;;;;12.40;5.07;;;8.10;99.90;;;;;;5124589;28;20199;-80
2023/05/28 01:58:57;;;;;;;8.33;5.30;;;8.10;99.90;;;;;;5128151;27;20651;-79
2023/05/28 02:01:28;;;;;;;9.17;5.90;;;8.30;99.90;;;;;;5122229;28;20201;-76
2023/05/28 02:03:55;;;;;;;15.03;6.70;;;8.40;99.90;;;;;;5134249;27;20196;-76
2023/05/28 02:06:22;;;;;;;13.27;6.57;;;8.50;99.90;;;;;;5117749;28;20201;-80
2023/05/28 02:08:49;;;;;;;11.63;6.60;;;8.60;99.90;;;;;;5131287;27;20196;-76
2023/05/28 02:11:16;;;;;;;12.60;6.43;;;8.80;99.90;;;;;;5138592;27;20204;-79
2023/05/28 02:13:44;;;;;;;11.63;6.07;;;8.80;99.90;;;;;;5122677;27;20750;-79
2023/05/28 02:16:11;;;;;;;12.47;6.33;;;8.80;99.90;;;;;;5122560;27;20203;-80
2023/05/28 02:18:39;;;;;;;10.70;6.10;;;8.90;99.90;;;;;;5122560;28;20201;-77
2023/05/28 02:21:07;;;;;;;14.33;6.30;;;9.10;99.90;;;;;;5130975;27;20223;-76
2023/05/28 02:23:33;;;;;;;10.50;5.70;;;9.10;99.90;;;;;;5133959;27;20778;-80
2023/05/28 02:26:01;;;;;;;10.77;5.93;;;9.10;99.90;;;;;;5134934;27;20207;-76
2023/05/28 02:28:27;;;;;;;14.60;5.47;;;9.10;99.90;;;;;;5135273;27;20192;-79
2023/05/28 02:30:55;;;;;;;8.33;4.90;;;9.00;99.90;;;;;;5126989;27;20197;-77
2023/05/28 02:33:22;;;;;;;11.87;5.50;;;8.70;99.90;;;;;;5125838;27;20223;-76
2023/05/28 02:35:49;;;;;;;11.17;5.37;;;8.60;99.90;;;;;;5143110;27;20607;-76
2023/05/28 02:38:16;;;;;;;8.03;5.63;;;8.70;99.90;;;;;;5133057;27;20204;-80
2023/05/28 02:40:43;;;;;;;9.30;5.23;;;8.70;99.90;;;;;;5134248;27;20212;-77
2023/05/28 02:43:10;;;;;;;10.30;5.10;;;8.70;99.90;;;;;;5133217;27;20227;-80
2023/05/28 02:45:36;;;;;;;10.40;5.63;;;8.60;99.90;;;;;;5133278;27;20222;-77
2023/05/28 02:48:05;;;;;;;9.17;5.27;;;8.70;99.90;;;;;;5131882;27;20203;-76
2023/05/28 02:50:32;;;;;;;10.27;5.40;;;8.60;99.90;;;;;;5121969;27;20577;-77
2023/05/28 02:52:59;;;;;;;7.90;4.83;;;8.50;99.90;;;;;;5120896;27;20216;-77
2023/05/28 02:55:26;;;;;;;9.17;4.80;;;8.50;99.90;;;;;;5138552;27;20202;-79
2023/05/28 02:57:53;;;;;;;8.10;5.13;;;8.50;99.90;;;;;;5126399;27;20201;-79
2023/05/28 03:00:21;;;;;;;7.43;5.07;;;8.50;99.90;;;;;;5121601;27;20216;-77
2023/05/28 03:02:48;;;;;;;10.20;5.67;;;8.60;99.90;;;;;;5124856;27;20256;-78
2023/05/28 03:05:16;;;;;;;9.93;4.90;;;8.70;99.90;;;;;;5131217;27;20230;-79
2023/05/28 03:07:43;;;;;;;9.50;4.70;;;8.60;99.90;;;;;;5128898;27;20266;-79
2023/05/28 03:10:10;;;;;;;9.47;5.03;;;8.50;99.90;;;;;;5130280;27;20675;-77
2023/05/28 03:12:37;;;;;;;8.00;4.53;;;8.40;99.90;;;;;;5134633;27;20251;-79
2023/05/28 03:15:04;;;;;;;8.07;4.33;;;8.40;99.90;;;;;;5121065;28;20585;-77
2023/05/28 03:17:31;;;;;;;9.07;5.13;;;8.40;99.90;;;;;;5122738;27;20502;-78
2023/05/28 03:19:58;;;;;;;8.77;4.77;;;8.40;99.90;;;;;;5131812;27;20323;-76
2023/05/28 03:22:26;;;;;;;8.67;4.67;;;8.40;99.90;;;;;;5133354;27;20717;-76
2023/05/28 03:24:53;;;;;;;9.50;4.60;;;8.40;99.90;;;;;;5130782;27;20219;-78
2023/05/28 03:27:20;;;;;;;9.63;4.93;;;8.40;99.90;;;;;;5128413;27;20205;-79
2023/05/28 03:29:46;;;;;;;9.27;4.50;;;8.50;99.90;;;;;;5129163;27;20279;-77
2023/05/28 03:32:13;;;;;;;11.63;4.70;;;8.40;99.90;;;;;;5119740;27;20216;-77
2023/05/28 03:34:40;;;;;;;9.33;4.87;;;8.40;99.90;;;;;;5119513;27;20199;-80
2023/05/28 03:37:07;;;;;;;8.90;4.70;;;8.50;99.90;;;;;;5126220;27;20293;-78
2023/05/28 03:39:35;;;;;;;8.37;4.83;;;8.50;99.90;;;;;;5133291;27;20644;-79
2023/05/28 03:42:02;;;;;;;8.63;4.40;;;8.50;99.90;;;;;;5135924;27;20292;-77
2023/05/28 03:44:29;;;;;;;7.40;4.60;;;8.30;99.90;;;;;;5131762;27;20296;-77
2023/05/28 03:46:55;;;;;;;10.37;4.87;;;8.30;99.90;;;;;;5123182;27;20204;-77
2023/05/28 03:49:22;;;;;;;7.70;4.67;;;8.10;99.90;;;;;;5119980;28;20204;-78
2023/05/28 03:51:49;;;;;;;10.13;5.13;;;8.20;99.90;;;;;;5118914;27;20227;-77
2023/05/28 03:54:16;;;;;;;9.50;5.60;;;8.20;99.90;;;;;;5124646;27;20232;-78
2023/05/28 03:56:44;;;;;;;11.93;5.53;;;8.40;99.90;;;;;;5133508;27;20295;-78
2023/05/28 03:59:11;;;;;;;7.27;4.80;;;8.40;99.90;;;;;;5139116;27;20196;-78
2023/05/28 04:01:38;;;;;;;12.63;5.33;;;8.40;99.90;;;;;;5140649;27;20317;-76
2023/05/28 04:04:04;;;;;;;9.63;4.70;;;8.40;99.90;;;;;;5139604;27;20201;-78
2023/05/28 04:06:32;;;;;;;10.03;4.73;;;8.50;99.90;;;;;;5125544;27;20201;-78
2023/05/28 04:08:59;;;;;;;10.67;4.53;;;8.80;99.90;;;;;;5119796;27;20280;-79
2023/05/28 04:11:38;;;;;;;8.63;4.93;;;8.90;99.90;;;;;;5123801;27;20257;-78
2023/05/28 04:14:09;;;;;;;8.40;4.50;;;8.70;99.90;;;;;;5123747;27;20222;-77
2023/05/28 04:16:35;;;;;;;8.40;5.60;;;8.70;99.90;;;;;;5121810;27;20220;-78
2023/05/28 04:19:02;;;;;;;8.27;4.70;;;9.10;99.90;;;;;;5127795;27;20197;-78
2023/05/28 04:21:30;;;;;;;7.43;4.60;;;10.00;99.90;;;;;;5136913;27;20219;-79
2023/05/28 04:23:56;;;;;;;8.67;4.53;;;10.60;99.90;;;;;;5128453;27;20193;-76
2023/05/28 04:26:23;;;;;;;8.83;4.50;;;10.40;99.90;;;;;;5137397;27;20197;-79
2023/05/28 04:28:52;;;;;;;8.00;4.40;;;10.20;99.90;;;;;;5128441;27;20226;-80
2023/05/28 04:31:21;;;;;;;8.77;5.30;;;10.40;99.90;;;;;;5124707;27;20565;-79
2023/05/28 04:33:48;;;;;;;9.37;4.70;;;10.00;99.90;;;;;;5125146;27;20266;-80
2023/05/28 04:36:14;;;;;;;7.20;4.50;;;9.70;99.90;;;;;;5133818;27;20211;-79
2023/05/28 04:38:42;;;;;;;9.50;4.90;;;9.90;99.90;;;;;;5122703;27;20197;-77
2023/05/28 04:41:09;;;;;;;8.50;5.00;;;10.20;99.90;;;;;;5119075;27;20217;-78
2023/05/28 04:43:36;;;;;;;12.13;5.00;;;10.40;99.90;;;;;;5108286;27;20308;-77
2023/05/28 04:46:04;;;;;;;8.27;4.87;;;10.50;99.90;;;;;;5110544;27;20208;-77
2023/05/28 04:48:32;;;;;;;9.67;5.20;;;10.80;99.90;;;;;;5110890;27;20201;-77
2023/05/28 04:50:59;;;;;;;7.03;4.70;;;10.90;99.90;;;;;;5115426;27;20193;-79
2023/05/28 04:53:26;;;;;;;10.47;5.60;;;10.90;99.90;;;;;;5109050;28;20338;-77
2023/05/28 04:55:53;;;;;;;8.03;5.33;;;10.70;99.90;;;;;;5116779;27;20204;-78
2023/05/28 04:58:20;;;;;;;8.80;5.00;;;10.90;99.90;;;;;;5107616;27;20610;-79
2023/05/28 05:00:47;;;;;;;9.20;5.03;;;11.10;99.90;;;;;;5111730;27;20289;-78
2023/05/28 05:03:14;;;;;;;9.77;4.93;;;11.10;99.90;;;;;;5106735;27;20348;-79
2023/05/28 05:05:43;;;;;;;11.13;4.50;;;11.20;99.90;;;;;;5112402;27;20208;-77
2023/05/28 05:08:13;;;;;;;9.60;5.23;;;11.30;99.90;;;;;;5122687;27;20205;-80
2023/05/28 05:10:41;;;;;;;9.53;5.23;;;11.20;99.90;;;;;;5115201;27;20554;-81
2023/05/28 05:13:08;;;;;;;9.03;5.10;;;11.20;99.90;;;;;;5111954;27;20225;-80
2023/05/28 05:15:35;;;;;;;9.70;4.80;;;11.60;99.90;;;;;;5118701;27;20201;-79
2023/05/28 05:18:02;;;;;;;8.37;4.60;;;11.90;99.90;;;;;;5111542;27;20694;-79
2023/05/28 05:20:30;;;;;;;8.93;4.90;;;12.00;99.90;;;;;;5116133;27;20316;-78
2023/05/28 05:22:58;;;;;;;8.93;4.67;;;12.30;99.90;;;;;;5107329;28;20222;-77
2023/05/28 05:25:25;;;;;;;11.63;4.60;;;13.00;99.90;;;;;;5109311;27;20204;-78
2023/05/28 05:27:53;;;;;;;12.57;4.97;;;13.50;99.90;;;;;;5113291;27;20208;-80
2023/05/28 05:30:19;;;;;;;9.10;4.60;;;14.10;99.90;;;;;;5116463;27;20209;-77
2023/05/28 05:32:46;;;;;;;8.20;4.80;;;13.50;99.90;;;;;;5112874;27;20225;-80
2023/05/28 05:35:14;;;;;;;10.47;5.43;;;12.80;99.90;;;;;;5114716;28;20206;-79
2023/05/28 05:37:41;;;;;;;8.93;4.47;;;12.70;99.90;;;;;;5108220;27;20255;-79
2023/05/28 05:40:10;;;;;;;8.50;4.60;;;12.70;99.90;;;;;;5109651;27;20208;-76
2023/05/28 05:42:37;;;;;;;9.37;4.83;;;12.90;99.90;;;;;;5113920;27;20248;-77
2023/05/28 05:45:06;;;;;;;9.17;5.07;;;13.60;99.90;;;;;;5114552;27;20200;-79
2023/05/28 05:47:32;;;;;;;10.50;5.10;;;14.30;99.90;;;;;;5108872;28;20202;-75
2023/05/28 05:49:59;;;;;;;7.00;4.27;;;15.60;99.90;;;;;;5110436;27;20212;-77
2023/05/28 05:52:26;;;;;;;7.43;4.32;;;16.00;99.90;;;;;;5107346;28;20601;-75
2023/05/28 05:54:54;;;;;;;10.60;4.30;;;15.10;99.90;;;;;;5110031;27;20207;-78
2023/05/28 05:57:22;;;;;;;8.88;4.78;;;14.10;99.90;;;;;;5116893;27;20205;-76
2023/05/28 05:59:48;;;;;;;8.75;4.72;;;13.90;99.90;;;;;;5112650;27;20209;-76
2023/05/28 06:02:15;;;;;;;9.05;5.32;;;13.60;99.90;;;;;;5115123;28;20228;-79
2023/05/28 06:04:46;;;;;;;10.93;5.80;;;13.70;99.90;;;;;;5113877;28;20228;-79
2023/05/28 06:07:13;;;;;;;7.50;4.70;;;13.70;99.90;;;;;;5115702;27;20227;-76
2023/05/28 06:09:40;;;;;;;10.15;5.13;;;13.70;99.90;;;;;;5106589;27;20636;-78
2023/05/28 06:12:07;;;;;;;8.37;4.77;;;13.80;99.90;;;;;;5117726;27;20231;-76
2023/05/28 06:14:36;;;;;;;10.48;4.68;;;13.80;99.90;;;;;;5110844;28;20202;-79
2023/05/28 06:17:03;;;;;;;9.82;5.18;;;13.90;99.90;;;;;;5113520;28;20201;-76
2023/05/28 06:19:30;;;;;;;12.90;5.03;;;14.00;99.90;;;;;;5117843;27;20709;-77
2023/05/28 06:21:57;;;;;;;9.35;4.28;;;14.10;99.90;;;;;;5110472;27;20229;-76
2023/05/28 06:24:24;;;;;;;10.65;4.95;;;14.10;99.90;;;;;;5116682;27;20207;-78
2023/05/28 06:26:51;;;;;;;11.97;4.80;;;14.20;99.90;;;;;;5105186;27;20673;-77
2023/05/28 06:29:18;;;;;;;9.98;4.70;;;14.00;99.90;;;;;;5109468;27;20284;-77
2023/05/28 06:31:46;;;;;;;11.07;4.82;;;14.10;99.90;;;;;;5120211;27;20201;-78
2023/05/28 06:34:13;;;;;;;11.13;5.07;;;14.00;99.90;;;;;;5133895;27;20201;-77
2023/05/28 06:36:41;;;;;;;9.50;5.13;;;14.10;99.90;;;;;;5132028;27;20724;-76
2023/05/28 06:39:08;;;;;;;10.60;4.63;;;14.40;99.90;;;;;;5132846;27;20225;-76
2023/05/28 06:41:35;;;;;;;11.95;4.57;;;14.40;99.90;;;;;;5126271;28;20220;-80
2023/05/28 06:44:02;;;;;;;11.18;4.97;;;14.40;99.90;;;;;;5122508;27;20201;-80
2023/05/28 06:46:29;;;;;;;6.77;4.60;;;14.70;99.90;;;;;;5120226;28;20571;-78
2023/05/28 06:48:57;;;;;;;9.43;4.77;;;14.80;99.90;;;;;;5126842;27;20633;-79
2023/05/28 06:51:24;;;;;;;12.10;5.90;;;15.00;99.90;;;;;;5124346;28;20224;-80
2023/05/28 06:53:51;;;;;;;12.23;5.90;;;15.20;99.90;;;;;;5124670;27;20222;-80
2023/05/28 06:56:18;;;;;;;8.30;4.95;;;15.30;99.90;;;;;;5131328;27;20655;-80
2023/05/28 06:58:45;;;;;;;8.18;5.00;;;15.30;99.90;;;;;;5139955;27;20279;-80
2023/05/28 07:01:11;;;;;;;10.85;5.07;;;15.30;99.90;;;;;;5141964;27;20224;-77
2023/05/28 07:03:38;;;;;;;10.60;4.78;;;15.40;99.90;;;;;;5132030;27;20227;-78
2023/05/28 07:06:07;;;;;;;9.07;4.72;;;15.60;99.90;;;;;;5139302;27;20204;-76
2023/05/28 07:08:34;;;;;;;6.80;4.43;;;15.70;99.90;;;;;;5136734;27;20197;-79
2023/05/28 07:11:01;;;;;;;12.00;5.03;;;15.70;99.90;;;;;;5133128;27;20265;-79
2023/05/28 07:13:28;;;;;;;10.38;4.47;;;15.80;99.90;;;;;;5135438;27;20213;-78
2023/05/28 07:15:54;;;;;;;9.50;4.30;;;15.80;99.90;;;;;;5124355;27;20201;-78
2023/05/28 07:18:22;;;;;;;7.85;4.10;;;15.90;99.90;;;;;;5116339;27;20205;-78
2023/05/28 07:20:49;;;;;;;8.50;4.22;;;16.00;99.90;;;;;;5126277;27;20212;-76
2023/05/28 07:23:17;;;;;;;9.18;4.07;;;15.90;99.90;;;;;;5134785;27;20232;-77
2023/05/28 07:25:44;;;;;;;9.40;4.03;;;16.00;99.90;;;;;;5124242;27;20711;-77
2023/05/28 07:28:11;;;;;;;14.10;4.90;;;16.00;99.90;;;;;;5120988;27;20278;-80
2023/05/28 07:30:38;;;;;;;12.68;4.95;;;16.00;99.90;;;;;;5132194;27;20471;-80
2023/05/28 07:33:04;;;;;;;6.63;4.22;;;16.00;99.90;;;;;;5118477;27;20213;-79
2023/05/28 07:35:31;;;;;;;8.57;4.68;;;16.10;99.90;;;;;;5132295;27;20227;-79
2023/05/28 07:37:58;;;;;;;10.10;4.47;;;16.20;99.90;;;;;;5131801;27;20227;-77
2023/05/28 07:40:26;;;;;;;10.43;5.05;;;16.40;99.90;;;;;;5122353;27;20225;-77
2023/05/28 07:42:53;;;;;;;8.82;4.97;;;16.40;99.90;;;;;;5119970;27;20247;-78
2023/05/28 07:45:20;;;;;;;11.00;5.22;;;16.50;99.90;;;;;;5137098;27;20237;-78
2023/05/28 07:47:47;;;;;;;11.85;5.25;;;16.40;99.90;;;;;;5132640;27;20199;-77
2023/05/28 07:50:14;;;;;;;9.35;4.57;;;16.50;99.90;;;;;;5127843;27;20212;-78
2023/05/28 07:52:41;;;;;;;8.52;4.70;;;16.70;99.90;;;;;;5124599;27;20216;-77
2023/05/28 07:55:09;;;;;;;7.07;4.10;;;16.80;99.90;;;;;;5130010;27;20200;-79
2023/05/28 07:57:37;;;;;;;9.60;4.20;;;16.90;99.90;;;;;;5118072;27;20205;-79
2023/05/28 08:00:06;;;;;;;11.88;5.18;;;16.90;99.90;;;;;;5127619;27;20201;-77
2023/05/28 08:02:33;;;;;;;10.80;4.40;;;17.00;99.90;;;;;;5131408;27;20272;-79
2023/05/28 08:05:00;;;;;;;9.38;4.43;;;17.00;99.90;;;;;;5120169;27;20219;-79
2023/05/28 08:07:28;;;;;;;8.55;4.20;;;17.00;99.90;;;;;;5119212;27;20200;-79
2023/05/28 08:09:55;;;;;;;8.70;4.38;;;17.10;99.90;;;;;;5127128;27;20196;-76
2023/05/28 08:12:21;;;;;;;7.35;4.57;;;17.10;99.90;;;;;;5118614;27;20216;-78
2023/05/28 08:14:50;;;;;;;11.00;4.90;;;17.20;99.90;;;;;;5136801;27;20205;-79
2023/05/28 08:17:17;;;;;;;9.38;5.03;;;17.20;99.90;;;;;;5124829;27;20219;-82
2023/05/28 08:19:44;;;;;;;8.85;4.68;;;17.30;99.90;;;;;;5132460;27;20204;-77
2023/05/28 08:22:11;;;;;;;9.05;4.60;;;17.40;99.90;;;;;;5123169;27;20217;-79
2023/05/28 08:24:38;;;;;;;8.52;4.00;;;17.50;99.90;;;;;;5137013;27;20201;-79
2023/05/28 08:27:05;;;;;;;8.40;4.20;;;17.60;99.90;;;;;;5129162;27;20207;-77
2023/05/28 08:29:32;;;;;;;7.30;4.63;;;17.70;99.90;;;;;;5133717;27;20283;-79
2023/05/28 08:32:01;;;;;;;8.63;3.97;;;17.70;99.90;;;;;;5123850;27;20224;-78
2023/05/28 08:34:28;;;;;;;6.60;3.63;;;17.60;99.90;;;;;;5140428;27;20200;-80
2023/05/28 08:36:55;;;;;;;5.93;3.95;;;17.80;99.90;;;;;;5131877;27;20682;-78
2023/05/28 08:39:24;;;;;;;9.38;4.70;;;17.90;99.90;;;;;;5131207;27;20291;-78
2023/05/28 08:41:50;;;;;;;9.60;4.15;;;18.00;99.90;;;;;;5124099;27;20258;-78
2023/05/28 08:44:17;;;;;;;5.88;4.20;;;18.20;99.90;;;;;;5122327;27;20205;-77
2023/05/28 08:46:45;;;;;;;9.80;4.30;;;18.20;99.90;;;;;;5121439;27;20197;-79
2023/05/28 08:49:15;;;;;;;8.32;4.60;;;18.40;99.90;;;;;;5124770;27;20264;-78
2023/05/28 08:51:43;;;;;;;8.95;4.95;;;18.60;99.90;;;;;;5120900;27;20213;-77
2023/05/28 08:54:10;;;;;;;7.22;4.15;;;18.70;99.90;;;;;;5124115;27;20287;-78
2023/05/28 08:56:38;;;;;;;8.73;3.75;;;19.40;99.90;;;;;;5122201;27;20227;-78
2023/05/28 08:59:07;;;;;;;9.65;4.15;;;19.80;99.90;;;;;;5129213;27;20222;-77
2023/05/28 09:01:34;;;;;;;8.05;3.88;;;20.00;99.90;;;;;;5133137;27;20220;-76
2023/05/28 09:04:01;;;;;;;8.50;3.90;;;20.00;99.90;;;;;;5124457;27;20211;-80
2023/05/28 09:06:31;;;;;;;6.47;3.83;;;20.50;1.00;;;;;;5120013;28;20212;-77
2023/05/28 09:08:58;;;;;;;6.75;4.43;;;20.70;1.00;;;;;;5120176;27;20201;-77
2023/05/28 09:11:26;;;;;;;7.00;3.60;;;20.80;1.00;;;;;;5118884;27;20201;-78
2023/05/28 09:13:53;;;;;;;8.50;3.08;;;20.60;1.00;;;;;;5118846;27;20267;-78
2023/05/28 09:16:23;;;;;;;6.20;3.15;;;20.80;1.00;;;;;;5127069;27;20584;-78
2023/05/28 09:18:51;;;;;;;4.35;3.03;;;20.70;1.00;;;;;;5135377;27;20210;-78
2023/05/28 09:21:20;;;;;;;7.40;3.50;;;21.00;1.00;;;;;;5128654;27;20224;-77
2023/05/28 09:23:51;;;;;;;5.45;3.00;;;21.00;1.00;;;;;;5119586;27;20216;-79
2023/05/28 09:26:19;;;;;;;7.70;3.38;;;21.60;1.00;;;;;;5130278;27;20212;-77
2023/05/28 09:28:46;;;;;;;6.70;2.75;;;21.60;1.00;;;;;;5133696;27;20193;-78
2023/05/28 09:31:14;;;;;;;7.38;3.00;;;21.80;99.90;;;;;;5132412;27;20193;-77
2023/05/28 09:33:43;;;;;;;7.38;3.42;;;22.00;99.90;;;;;;5129164;27;20213;-77
2023/05/28 09:36:11;;;;;;;6.15;3.15;;;21.90;1.00;;;;;;5119734;27;20218;-78
2023/05/28 09:38:41;;;;;;;5.30;3.00;;;21.60;1.00;;;;;;5129827;27;20196;-80
2023/05/28 09:41:20;;;;;;;4.70;3.10;;;22.20;1.00;;;;;;5119210;27;20201;-78
2023/05/28 09:43:47;;;;;;;5.70;3.00;;;22.50;99.90;;;;;;5125778;27;20212;-79
2023/05/28 09:46:14;;;;;;;3.90;2.40;;;22.00;99.90;;;;;;5128450;27;20196;-76
2023/05/28 09:48:40;;;;;;;5.82;2.80;;;21.70;1.00;;;;;;5125107;27;20221;-79
2023/05/28 09:51:11;;;;;;;4.70;2.85;;;21.60;1.00;;;;;;5128935;27;20197;-79
2023/05/28 09:53:44;;;;;;;4.15;2.40;;;22.00;1.00;;;;;;5133017;27;20233;-76
2023/05/28 09:56:12;;;;;;;5.18;2.95;;;22.10;1.00;;;;;;5120324;28;20649;-77
2023/05/28 09:58:46;;;;;;;3.97;2.80;;;21.60;1.00;;;;;;5118360;28;20217;-79
2023/05/28 10:01:15;;;;;;;4.32;2.53;;;21.50;99.90;;;;;;5120326;28;20207;-77
2023/05/28 10:03:46;;;;;;;5.95;2.97;;;22.10;99.90;;;;;;5131241;27;20284;-79
2023/05/28 10:06:17;;;;;;;8.40;3.30;;;22.50;99.90;;;;;;5117331;28;20246;-79
2023/05/28 10:08:47;;;;;;;7.05;3.08;;;22.70;99.90;;;;;;5118060;28;20208;-80
2023/05/28 10:11:17;;;;;;;3.50;2.60;;;22.80;99.90;;;;;;5116816;28;20199;-79
2023/05/28 10:13:46;;;;;;;2.60;2.33;;;22.40;1.00;;;;;;5125293;28;20216;-77
2023/05/28 10:16:13;;;;;;;3.00;2.08;;;22.80;1.00;;;;;;5117554;27;20197;-76
2023/05/28 10:18:42;;;;;;;6.93;2.83;;;22.30;1.00;;;;;;5119198;27;20192;-80
2023/05/28 10:21:11;;;;;;;3.80;2.70;;;22.30;1.00;;;;;;5130635;27;20577;-74
2023/05/28 10:23:38;;;;;;;3.88;2.60;;;22.30;1.00;;;;;;5139760;28;20230;-77
2023/05/28 10:26:05;;;;;;;4.47;2.70;;;22.30;1.00;;;;;;5139975;27;20207;-79
2023/05/28 10:28:32;;;;;;;4.40;2.65;;;22.40;99.90;;;;;;5140636;27;20199;-78
2023/05/28 10:31:06;;;;;;;4.93;2.75;;;22.60;99.90;;;;;;5144438;27;20231;-79
2023/05/28 10:33:33;;;;;;;6.20;2.88;;;22.60;99.90;;;;;;5143077;27;20216;-77
2023/05/28 10:36:01;;;;;;;3.75;2.65;;;22.70;99.90;;;;;;5143903;27;20615;-76
2023/05/28 10:38:30;;;;;;;5.80;3.00;;;23.00;99.90;;;;;;5146046;27;20204;-76
2023/05/28 10:41:03;;;;;;;5.93;2.80;;;22.70;99.90;;;;;;5145777;27;20193;-77
2023/05/28 10:43:46;;;;;;;7.57;2.75;;;22.80;1.00;;;;;;5144816;27;20217;-76
2023/05/28 10:46:17;;;;;;;3.97;2.83;;;23.00;1.00;;;;;;5145395;27;20232;-78
2023/05/28 10:49:10;;;;;;;4.70;3.10;;;23.40;1.00;;;;;;5144972;27;20207;-75
2023/05/28 10:51:52;;;;;;;6.85;3.00;;;23.20;1.00;;;;;;5144722;27;20208;-78
2023/05/28 10:54:24;;;;;;;6.18;2.72;;;23.40;1.00;;;;;;5144343;27;20249;-76
2023/05/28 10:57:14;;;;;;;4.25;2.85;;;23.90;1.00;;;;;;5144475;27;20196;-78
2023/05/28 10:59:48;;;;;;;3.97;2.58;;;24.20;99.90;;;;;;5144006;27;20204;-76
2023/05/28 11:02:21;;;;;;;4.85;3.10;;;24.00;99.90;;;;;;5143896;27;20235;-77
2023/05/28 11:04:51;;;;;;;4.78;2.90;;;24.40;99.90;;;;;;5144384;27;20609;-78
2023/05/28 11:07:20;;;;;;;4.35;2.75;;;24.50;99.90;;;;;;5143906;27;20204;-79
2023/05/28 11:09:49;;;;;;;4.72;2.85;;;23.50;69.10;;;;;;5143353;27;20245;-78
2023/05/28 11:12:16;;;;;;;4.35;2.90;;;23.30;1.00;;;;;;5122848;27;20217;-76
2023/05/28 11:14:43;;;;;;;4.85;2.70;;;23.10;2.90;;;;;;5122231;27;20288;-77
2023/05/28 11:17:11;;;;;;;4.95;3.05;;;23.30;1.00;;;;;;5122194;28;20657;-77
2023/05/28 11:19:46;;;;;;;4.82;2.83;;;23.70;1.00;;;;;;5122585;28;20208;-77
2023/05/28 11:22:13;;;;;;;4.00;2.65;;;24.00;1.00;;;;;;5123367;28;20231;-76
2023/05/28 11:24:55;;;;;;;5.45;2.63;;;23.20;1.00;;;;;;5122887;28;20645;-76
2023/05/28 11:27:23;;;;;;;4.80;2.90;;;24.20;1.00;;;;;;5133784;27;20196;-77
2023/05/28 11:29:50;;;;;;;4.68;2.80;;;23.70;1.00;;;;;;5127750;27;20673;-75
2023/05/28 11:32:19;;;;;;;6.40;2.85;;;23.30;1.00;;;;;;5134495;27;20227;-76
2023/05/28 11:34:49;;;;;;;4.20;2.47;;;24.10;1.00;;;;;;5142777;27;20204;-75
2023/05/28 11:37:16;;;;;;;4.72;2.50;;;24.10;99.90;;;;;;5138927;27;20581;-76
2023/05/28 11:39:49;;;;;;;4.38;2.53;;;23.70;99.90;;;;;;5120650;27;20211;-76
2023/05/28 11:42:16;;;;;;;3.92;2.35;;;23.80;99.90;;;;;;5123469;27;20224;-76
2023/05/28 11:44:45;;;;;;;5.10;2.95;;;24.10;99.90;;;;;;5120087;27;20586;-79
2023/05/28 11:47:12;;;;;;;5.22;2.65;;;23.50;99.90;;;;;;5112543;27;20206;-77
2023/05/28 11:49:40;;;;;;;2.90;2.60;;;22.90;99.90;;;;;;5119835;28;20203;-79
2023/05/28 11:52:11;;;;;;;5.88;2.78;;;22.80;99.90;;;;;;5122860;27;20228;-79
2023/05/28 11:54:38;;;;;;;5.43;3.17;;;23.10;99.90;;;;;;5129562;27;20193;-78
2023/05/28 11:57:06;;;;;;;3.67;2.90;;;23.00;99.90;;;;;;5120139;28;20205;-79
2023/05/28 11:59:34;;;;;;;3.75;2.53;;;22.80;1.00;;;;;;5119838;27;20605;-77
2023/05/28 12:02:18;;;;;;;5.05;2.60;;;22.90;1.00;;;;;;5138243;27;20269;-78
2023/05/28 12:04:57;;;;;;;7.25;2.83;;;22.80;37.20;;;;;;5125650;27;20193;-78
2023/05/28 12:07:29;;;;;;;5.93;3.30;;;22.80;9.80;;;;;;5113317;28;20203;-77
2023/05/28 12:10:07;;;;;;;6.85;2.80;;;22.40;99.90;;;;;;5119525;27;20250;-75
2023/05/28 12:12:33;;;;;;;4.90;2.67;;;22.40;99.90;;;;;;5118612;27;20243;-77
2023/05/28 12:15:03;;;;;;;5.57;2.47;;;22.50;99.90;;;;;;5119793;28;20204;-77
2023/05/28 12:17:37;;;;;;;5.07;3.00;;;22.30;1.00;;;;;;5126364;27;20233;-76
2023/05/28 12:20:06;;;;;;;4.95;2.92;;;22.20;99.90;;;;;;5124059;27;20208;-76
2023/05/28 12:22:34;;;;;;;5.22;2.85;;;22.40;1.00;;;;;;5124266;27;20231;-76
2023/05/28 12:25:02;;;;;;;5.15;2.95;;;22.40;1.00;;;;;;5140061;27;20283;-76
2023/05/28 12:27:29;;;;;;;4.13;2.60;;;22.60;1.00;;;;;;5139595;27;20585;-77
2023/05/28 12:29:56;;;;;;;5.30;3.17;;;23.30;15.00;;;;;;5120809;27;20679;-75
2023/05/28 12:32:23;;;;;;;6.03;2.60;;;23.30;99.90;;;;;;5133031;27;20593;-76
2023/05/28 12:34:51;;;;;;;6.03;2.97;;;23.60;99.90;;;;;;5141368;27;20563;-78
2023/05/28 12:37:18;;;;;;;4.32;3.03;;;23.40;92.80;;;;;;5142149;27;20238;-76
2023/05/28 12:39:46;;;;;;;3.80;2.50;;;23.50;1.00;;;;;;5133395;27;20205;-75
2023/05/28 12:42:13;;;;;;;4.40;2.78;;;23.10;1.00;;;;;;5136021;27;20234;-75
2023/05/28 12:44:39;;;;;;;3.35;2.50;;;22.90;1.00;;;;;;5133639;27;20212;-78
2023/05/28 12:47:07;;;;;;;4.32;2.92;;;23.20;1.00;;;;;;5132788;27;20207;-79
2023/05/28 12:49:34;;;;;;;5.28;2.67;;;23.30;99.90;;;;;;5119041;27;20229;-78
2023/05/28 12:52:01;;;;;;;7.00;3.20;;;22.80;1.00;;;;;;5118073;27;20619;-80